createdAt,value
2023-05-15T00:01:02.638Z,85.58
2023-05-15T00:06:06.124Z,85.81
2023-05-15T00:11:07.922Z,85.76
2023-05-15T00:16:09.702Z,87.00
2023-05-15T00:21:12.674Z,87.32
2023-05-15T00:26:16.004Z,87.78
2023-05-15T00:31:17.700Z,88.30
2023-05-15T00:36:21.666Z,88.11
2023-05-15T00:41:28.786Z,88.46
2023-05-15T00:46:32.083Z,88.70
2023-05-15T00:51:33.697Z,88.55
2023-05-15T00:56:35.509Z,88.87
2023-05-15T01:01:37.387Z,89.52
2023-05-15T01:06:39.196Z,89.96
2023-05-15T01:11:42.634Z,89.93
2023-05-15T01:16:47.112Z,90.01
2023-05-15T01:22:10.267Z,90.15
2023-05-15T01:27:35.704Z,89.78
2023-05-15T01:32:52.394Z,90.18
2023-05-15T01:38:16.821Z,90.11
2023-05-15T01:43:24.319Z,90.02
2023-05-15T01:48:28.478Z,90.16
2023-05-15T01:53:34.757Z,89.96
2023-05-15T01:58:38.974Z,90.32
2023-05-15T02:03:42.443Z,90.45
2023-05-15T02:08:46.640Z,90.16
2023-05-15T02:13:49.520Z,90.17
2023-05-15T02:18:52.734Z,90.03
2023-05-15T02:23:54.911Z,89.27
2023-05-15T02:29:12.558Z,89.12
2023-05-15T02:34:48.438Z,89.50
2023-05-15T02:39:54.401Z,89.18
2023-05-15T02:44:58.598Z,89.50
2023-05-15T02:50:00.633Z,89.68
2023-05-15T02:55:02.296Z,89.57
2023-05-15T03:00:07.431Z,89.36
2023-05-15T03:05:10.145Z,89.69
2023-05-15T03:10:11.941Z,89.72
2023-05-15T03:15:13.562Z,89.73
2023-05-15T03:20:15.375Z,89.38
2023-05-15T03:25:17.256Z,89.30
2023-05-15T03:30:18.962Z,88.83
2023-05-15T03:35:20.597Z,89.53
2023-05-15T03:40:22.184Z,89.62
2023-05-15T03:45:24.199Z,90.17
2023-05-15T03:50:26.024Z,89.75
2023-05-15T03:55:27.834Z,89.18
2023-05-15T04:00:29.584Z,89.31
2023-05-15T04:05:31.237Z,89.35
2023-05-15T04:10:33.738Z,89.12
2023-05-15T04:15:35.657Z,89.75
2023-05-15T04:20:37.402Z,89.46
2023-05-15T04:25:39.685Z,90.33
2023-05-15T04:30:41.705Z,90.49
2023-05-15T04:35:43.560Z,91.05
2023-05-15T04:40:46.856Z,90.46
2023-05-15T04:45:49.017Z,91.68
2023-05-15T04:50:51.433Z,90.79
2023-05-15T04:55:53.715Z,90.81
2023-05-15T05:00:55.533Z,92.33
2023-05-15T05:05:57.154Z,91.87
2023-05-15T05:10:58.811Z,92.89
2023-05-15T05:16:00.532Z,92.86
2023-05-15T05:21:03.645Z,92.63
2023-05-15T05:26:06.215Z,92.43
2023-05-15T05:31:08.201Z,91.82
2023-05-15T05:36:09.990Z,92.35
2023-05-15T05:41:11.655Z,91.79
2023-05-15T05:46:13.425Z,92.09
2023-05-15T05:51:20.035Z,92.81
2023-05-15T05:56:22.704Z,92.38
2023-05-15T06:01:24.444Z,91.54
2023-05-15T06:06:26.046Z,91.51
2023-05-15T06:11:27.720Z,91.26
2023-05-15T06:16:29.415Z,91.17
2023-05-15T06:21:31.290Z,92.04
2023-05-15T06:26:32.964Z,91.68
2023-05-15T06:31:34.668Z,90.83
2023-05-15T06:36:37.223Z,91.35
2023-05-15T06:41:38.819Z,91.02
2023-05-15T06:46:46.879Z,91.68
2023-05-15T06:51:48.578Z,90.81
2023-05-15T06:56:50.356Z,90.69
2023-05-15T07:01:52.074Z,89.50
2023-05-15T07:06:53.687Z,89.71
2023-05-15T07:11:55.301Z,91.37
2023-05-15T07:16:57.011Z,91.79
2023-05-15T07:21:58.670Z,91.74
2023-05-15T07:27:00.394Z,91.48
2023-05-15T07:32:02.089Z,91.76
2023-05-15T07:37:03.884Z,91.36
2023-05-15T07:42:05.840Z,92.16
2023-05-15T07:47:07.736Z,92.12
2023-05-15T07:52:09.307Z,92.01
2023-05-15T07:57:11.048Z,91.56
2023-05-15T08:02:12.750Z,91.55
2023-05-15T08:07:15.199Z,92.64
2023-05-15T08:12:17.728Z,92.13
2023-05-15T08:17:20.749Z,92.73
2023-05-15T08:22:22.614Z,93.07
2023-05-15T08:27:24.250Z,92.59
2023-05-15T08:32:26.833Z,93.45
2023-05-15T08:37:28.552Z,94.15
2023-05-15T08:42:43.006Z,94.10
2023-05-15T08:47:45.058Z,94.00
2023-05-15T08:52:47.873Z,93.33
2023-05-15T08:57:50.552Z,93.86
2023-05-15T09:02:54.528Z,94.05
2023-05-15T09:07:58.869Z,93.97
2023-05-15T09:13:02.442Z,93.82
2023-05-15T09:18:04.458Z,94.22
2023-05-15T09:23:22.171Z,93.97
2023-05-15T09:28:31.590Z,94.50
2023-05-15T09:33:35.640Z,93.81
2023-05-15T09:38:42.908Z,92.33
2023-05-15T09:43:46.161Z,93.16
2023-05-15T09:48:47.954Z,92.12
2023-05-15T09:53:52.041Z,92.99
2023-05-15T09:59:00.888Z,91.30
2023-05-15T10:04:06.539Z,89.90
2023-05-15T10:09:08.655Z,89.80
2023-05-15T10:14:13.179Z,90.06
2023-05-15T10:19:17.220Z,89.76
2023-05-15T10:24:21.693Z,90.52
2023-05-15T10:29:25.678Z,88.84
2023-05-15T10:34:28.912Z,86.21
2023-05-15T10:39:30.968Z,86.75
2023-05-15T10:44:32.584Z,87.08
2023-05-15T10:49:35.756Z,88.25
2023-05-15T10:54:37.500Z,87.74
2023-05-15T10:59:41.495Z,88.20
2023-05-15T11:04:46.904Z,88.30
2023-05-15T11:09:48.577Z,87.48
2023-05-15T11:14:55.864Z,88.11
2023-05-15T11:19:58.586Z,87.85
2023-05-15T11:25:01.629Z,86.25
2023-05-15T11:30:22.936Z,87.42
2023-05-15T11:36:00.711Z,87.77
2023-05-15T11:41:03.572Z,87.57
2023-05-15T11:46:07.936Z,86.42
2023-05-15T11:51:26.371Z,85.37
2023-05-15T11:56:30.827Z,84.15
2023-05-15T12:01:43.199Z,83.29
2023-05-15T12:06:49.861Z,84.36
2023-05-15T12:11:55.959Z,83.64
2023-05-15T12:17:07.238Z,82.06
2023-05-15T12:22:09.137Z,83.08
2023-05-15T12:27:12.936Z,83.37
2023-05-15T12:32:17.219Z,85.20
2023-05-15T12:37:23.249Z,85.65
2023-05-15T12:42:25.215Z,84.81
2023-05-15T12:47:29.221Z,84.11
2023-05-15T12:52:31.439Z,83.56
2023-05-15T12:57:34.045Z,82.60
2023-05-15T13:02:36.930Z,83.17
2023-05-15T13:07:43.902Z,83.54
2023-05-15T13:12:46.547Z,81.12
2023-05-15T13:17:48.373Z,83.41
2023-05-15T13:22:50.067Z,84.37
2023-05-15T13:27:51.763Z,83.39
2023-05-15T13:32:55.513Z,84.43
2023-05-15T13:37:57.548Z,82.85
2023-05-15T13:42:59.256Z,82.92
2023-05-15T13:48:00.967Z,82.99
2023-05-15T13:53:02.653Z,84.49
2023-05-15T13:58:04.253Z,83.07
2023-05-15T14:03:06.481Z,83.88
2023-05-15T14:08:08.205Z,83.73
2023-05-15T14:13:10.209Z,83.97
2023-05-15T14:18:13.325Z,83.74
2023-05-15T14:23:16.924Z,83.92
2023-05-15T14:28:19.250Z,83.43
2023-05-15T14:33:21.012Z,84.88
2023-05-15T14:38:22.739Z,85.76
2023-05-15T14:43:25.049Z,85.39
2023-05-15T14:48:26.738Z,85.70
2023-05-15T14:53:28.362Z,84.52
2023-05-15T14:58:30.646Z,83.63
2023-05-15T15:03:34.028Z,83.92
2023-05-15T15:08:36.178Z,84.60
2023-05-15T15:13:37.947Z,84.97
2023-05-15T15:18:39.523Z,83.95
2023-05-15T15:23:41.124Z,83.45
2023-05-15T15:28:42.719Z,81.93
2023-05-15T15:33:46.611Z,82.28
2023-05-15T15:38:48.983Z,83.21
2023-05-15T15:43:50.707Z,83.14
2023-05-15T15:48:52.326Z,82.39
2023-05-15T15:53:54.039Z,82.62
2023-05-15T15:58:55.610Z,84.35
2023-05-15T16:03:57.373Z,87.96
2023-05-15T16:08:59.817Z,87.26
2023-05-15T16:14:01.436Z,87.72
2023-05-15T16:19:03.224Z,86.12
2023-05-15T16:24:05.407Z,81.19
2023-05-15T16:29:07.154Z,79.74
2023-05-15T16:34:09.300Z,79.62
2023-05-15T16:39:11.209Z,79.04
2023-05-15T16:44:12.873Z,79.54
2023-05-15T16:49:16.584Z,78.17
2023-05-15T16:54:18.370Z,79.84
2023-05-15T16:59:19.971Z,78.53
2023-05-15T17:04:21.630Z,76.99
2023-05-15T17:09:23.251Z,75.21
2023-05-15T17:14:25.023Z,76.45
2023-05-15T17:19:26.664Z,76.89
2023-05-15T17:24:35.576Z,75.83
2023-05-15T17:29:40.908Z,78.79
2023-05-15T17:34:43.456Z,79.20
2023-05-15T17:39:45.783Z,79.44
2023-05-15T17:44:47.822Z,80.53
2023-05-15T17:49:49.548Z,80.57
2023-05-15T17:54:51.273Z,81.19
2023-05-15T17:59:52.988Z,81.18
2023-05-15T18:04:54.706Z,82.43
2023-05-15T18:09:56.416Z,81.87
2023-05-15T18:14:58.060Z,81.54
2023-05-15T18:19:59.795Z,83.26
2023-05-15T18:25:02.062Z,80.82
2023-05-15T18:30:04.633Z,81.86
2023-05-15T18:35:06.804Z,84.30
2023-05-15T18:40:09.577Z,81.88
2023-05-15T18:45:13.141Z,74.33
2023-05-15T18:50:16.124Z,80.45
2023-05-15T18:55:17.990Z,75.74
2023-05-15T19:00:36.490Z,75.02
2023-05-15T19:05:39.363Z,75.68
2023-05-15T19:10:50.552Z,77.29
2023-05-15T19:15:52.935Z,78.47
2023-05-15T19:20:54.571Z,74.63
2023-05-15T19:25:56.205Z,73.63
2023-05-15T19:30:57.951Z,72.64
2023-05-15T19:35:59.632Z,69.46
2023-05-15T19:41:01.393Z,74.92
2023-05-15T19:46:03.536Z,74.85
2023-05-15T19:51:05.307Z,74.67
2023-05-15T19:56:07.353Z,73.69
2023-05-15T20:01:09.108Z,72.05
2023-05-15T20:06:12.249Z,76.37
2023-05-15T20:11:13.859Z,70.98
2023-05-15T20:16:17.032Z,69.55
2023-05-15T20:21:18.667Z,69.68
2023-05-15T20:26:22.346Z,71.05
2023-05-15T20:31:24.069Z,71.36
2023-05-15T20:36:26.193Z,70.95
2023-05-15T20:41:27.848Z,71.39
2023-05-15T20:46:30.668Z,70.14
2023-05-15T20:51:33.121Z,70.70
2023-05-15T20:56:34.728Z,71.76
2023-05-15T21:01:36.761Z,72.09
2023-05-15T21:06:38.488Z,74.21
2023-05-15T21:11:40.082Z,69.39
2023-05-15T21:16:42.230Z,70.42
2023-05-15T21:21:43.822Z,68.84
2023-05-15T21:26:47.015Z,68.01
2023-05-15T21:31:48.772Z,69.03
2023-05-15T21:36:50.523Z,68.75
2023-05-15T21:41:52.480Z,67.98
2023-05-15T21:46:54.116Z,67.22
2023-05-15T21:51:56.153Z,67.25
2023-05-15T21:56:58.535Z,68.26
2023-05-15T22:02:00.206Z,68.45
2023-05-15T22:07:01.933Z,69.80
2023-05-15T22:12:03.768Z,67.32
2023-05-15T22:17:05.663Z,67.08
2023-05-15T22:22:07.562Z,66.63
2023-05-15T22:27:09.178Z,66.68
2023-05-15T22:32:10.894Z,64.10
2023-05-15T22:37:13.096Z,65.02
2023-05-15T22:42:15.131Z,64.70
2023-05-15T22:47:16.831Z,63.99
2023-05-15T22:52:18.763Z,64.34
2023-05-15T22:57:20.524Z,63.67
2023-05-15T23:02:22.217Z,63.71
2023-05-15T23:07:28.735Z,64.00
2023-05-15T23:12:30.916Z,65.19
2023-05-15T23:17:32.535Z,65.14
2023-05-15T23:22:34.348Z,65.88
2023-05-15T23:27:38.217Z,64.88
2023-05-15T23:32:39.980Z,63.92
2023-05-15T23:37:41.792Z,64.38
2023-05-15T23:42:43.423Z,63.99
2023-05-15T23:47:46.958Z,64.29
2023-05-15T23:52:48.649Z,64.34
2023-05-15T23:57:50.780Z,65.21
